Time;durP1;ratioP1;P1;durP2;ratioP2;P2;SDS_P1;SDS_P2;PMS_P1;PMS_P2;Temp;Humidity;BMP_temperature;BMP_pressure;BME280_temperature;BME280_humidity;BME280_pressure;Samples;Min_cycle;Max_cycle;Signal;HPM_P1;HPM_P2
2024/01/24 00:00:21;;;;;;;18.17;6.38;;;;;;;;;;5093456;28;20524;-83
2024/01/24 00:02:48;;;;;;;17.55;6.18;;;;;;;;;;5092827;28;20129;-83
2024/01/24 00:05:13;;;;;;;21.45;6.07;;;;;;;;;;5078580;28;20023;-82
2024/01/24 00:07:38;;;;;;;19.60;6.25;;;;;;;;;;5096550;28;20326;-82
2024/01/24 00:10:04;;;;;;;18.23;5.97;;;;;;;;;;5096610;28;20024;-83
2024/01/24 00:12:29;;;;;;;13.10;5.03;;;;;;;;;;5096557;28;20016;-84
2024/01/24 00:14:55;;;;;;;27.10;6.28;;;;;;;;;;5095078;28;20012;-83
2024/01/24 00:17:20;;;;;;;21.40;6.43;;;;;;;;;;5096239;28;20026;-84
2024/01/24 00:19:46;;;;;;;13.20;5.30;;;;;;;;;;5096407;28;20546;-83
2024/01/24 00:22:12;;;;;;;14.43;5.47;;;;;;;;;;5097030;28;20024;-82
2024/01/24 00:24:37;;;;;;;8.00;4.50;;;;;;;;;;5078579;28;20023;-83
2024/01/24 00:27:03;;;;;;;17.65;5.25;;;;;;;;;;5096932;28;20047;-82
2024/01/24 00:29:28;;;;;;;21.80;5.20;;;;;;;;;;5096486;28;20447;-83
2024/01/24 00:31:55;;;;;;;16.63;5.70;;;;;;;;;;5095929;28;20077;-83
2024/01/24 00:34:20;;;;;;;19.23;5.57;;;;;;;;;;5096188;28;20024;-81
2024/01/24 00:36:45;;;;;;;14.77;6.05;;;;;;;;;;5096287;28;20577;-82
2024/01/24 00:39:13;;;;;;;18.98;5.82;;;;;;;;;;5096143;28;20016;-83
2024/01/24 00:41:40;;;;;;;22.00;5.07;;;;;;;;;;5078271;28;20350;-82
2024/01/24 00:44:05;;;;;;;15.00;4.88;;;;;;;;;;5095847;28;20024;-82
2024/01/24 00:46:30;;;;;;;12.38;5.32;;;;;;;;;;5095836;28;20035;-82
2024/01/24 00:48:56;;;;;;;13.45;4.80;;;;;;;;;;5096494;28;20031;-83
2024/01/24 00:51:21;;;;;;;14.73;5.15;;;;;;;;;;5095998;28;20106;-84
2024/01/24 00:53:51;;;;;;;14.38;4.50;;;;;;;;;;5096031;28;20016;-83
2024/01/24 00:56:17;;;;;;;24.58;5.13;;;;;;;;;;5097582;28;20051;-84
2024/01/24 00:58:42;;;;;;;15.13;3.95;;;;;;;;;;5100005;28;20024;-82
2024/01/24 01:01:07;;;;;;;13.77;4.22;;;;;;;;;;5099718;28;20024;-82
2024/01/24 01:03:33;;;;;;;15.77;4.28;;;;;;;;;;5102009;28;20043;-84
2024/01/24 01:05:58;;;;;;;18.02;5.35;;;;;;;;;;5083990;28;20031;-82
2024/01/24 01:08:23;;;;;;;16.17;4.30;;;;;;;;;;5103539;28;20468;-81
2024/01/24 01:10:48;;;;;;;14.88;4.32;;;;;;;;;;5098106;28;20020;-81
2024/01/24 01:13:14;;;;;;;15.20;4.85;;;;;;;;;;5097515;28;20099;-82
2024/01/24 01:15:40;;;;;;;8.75;3.83;;;;;;;;;;5095303;28;20096;-82
2024/01/24 01:18:05;;;;;;;18.77;5.15;;;;;;;;;;5095765;28;20100;-82
2024/01/24 01:20:31;;;;;;;14.52;5.13;;;;;;;;;;5077959;28;20024;-83
2024/01/24 01:22:57;;;;;;;17.02;4.78;;;;;;;;;;5077675;28;20495;-83
2024/01/24 01:25:22;;;;;;;14.15;4.47;;;;;;;;;;5095559;28;20028;-82
2024/01/24 01:27:47;;;;;;;13.50;4.07;;;;;;;;;;5094773;28;20492;-83
2024/01/24 01:30:13;;;;;;;18.70;4.35;;;;;;;;;;5095075;28;20445;-81
2024/01/24 01:32:38;;;;;;;13.80;4.10;;;;;;;;;;5095236;28;20016;-82
2024/01/24 01:35:04;;;;;;;11.25;4.53;;;;;;;;;;5095247;28;20074;-83
2024/01/24 01:37:30;;;;;;;12.77;5.40;;;;;;;;;;5095560;28;20016;-83
2024/01/24 01:39:55;;;;;;;13.90;4.55;;;;;;;;;;5076987;28;20484;-82
2024/01/24 01:42:20;;;;;;;20.00;4.63;;;;;;;;;;5094930;28;20109;-83
2024/01/24 01:44:48;;;;;;;17.63;4.53;;;;;;;;;;5094931;28;20369;-83
2024/01/24 01:47:14;;;;;;;17.00;5.18;;;;;;;;;;5095353;28;20349;-82
2024/01/24 01:49:40;;;;;;;13.88;4.55;;;;;;;;;;5094947;28;20438;-82
2024/01/24 01:52:06;;;;;;;10.13;4.63;;;;;;;;;;5094562;28;20024;-81
2024/01/24 01:54:32;;;;;;;11.68;4.22;;;;;;;;;;5094595;28;20051;-83
2024/01/24 01:56:57;;;;;;;13.38;3.78;;;;;;;;;;5094457;28;20473;-82
2024/01/24 01:59:23;;;;;;;17.40;5.03;;;;;;;;;;5094339;28;20465;-81
2024/01/24 02:01:50;;;;;;;23.02;5.20;;;;;;;;;;5095083;28;20019;-80
2024/01/24 02:04:16;;;;;;;15.70;4.13;;;;;;;;;;5094872;28;20082;-81
2024/01/24 02:06:42;;;;;;;14.13;5.53;;;;;;;;;;5094831;28;20016;-82
2024/01/24 02:09:09;;;;;;;17.27;4.75;;;;;;;;;;5076342;28;20028;-80
2024/01/24 02:11:35;;;;;;;16.98;4.15;;;;;;;;;;5094628;28;20035;-81
2024/01/24 02:14:00;;;;;;;13.68;4.30;;;;;;;;;;5094799;28;20020;-81
2024/01/24 02:16:26;;;;;;;14.57;5.13;;;;;;;;;;5098640;28;20038;-80
2024/01/24 02:18:51;;;;;;;15.18;5.05;;;;;;;;;;5103019;28;20069;-81
2024/01/24 02:21:17;;;;;;;11.10;4.72;;;;;;;;;;5086194;28;20078;-81
2024/01/24 02:23:43;;;;;;;10.00;4.00;;;;;;;;;;5082737;28;20023;-82
2024/01/24 02:26:10;;;;;;;13.45;4.38;;;;;;;;;;5094596;28;20018;-80
2024/01/24 02:28:35;;;;;;;12.45;4.70;;;;;;;;;;5094385;28;20407;-80
2024/01/24 02:31:00;;;;;;;11.25;3.97;;;;;;;;;;5075767;28;20027;-82
2024/01/24 02:33:25;;;;;;;20.27;4.57;;;;;;;;;;5076025;28;20012;-80
2024/01/24 02:35:51;;;;;;;15.05;4.80;;;;;;;;;;5094009;28;20047;-81
2024/01/24 02:38:16;;;;;;;10.15;4.03;;;;;;;;;;5093891;28;20024;-83
2024/01/24 02:40:41;;;;;;;15.73;4.63;;;;;;;;;;5093790;28;20372;-82
2024/01/24 02:43:07;;;;;;;16.40;4.15;;;;;;;;;;5075426;28;20012;-82
2024/01/24 02:45:32;;;;;;;20.30;4.63;;;;;;;;;;5093933;28;20031;-80
2024/01/24 02:47:57;;;;;;;11.05;4.15;;;;;;;;;;5093824;28;20016;-80
2024/01/24 02:50:22;;;;;;;11.93;3.92;;;;;;;;;;5092201;28;20055;-81
2024/01/24 02:52:48;;;;;;;13.82;5.30;;;;;;;;;;5093467;28;20020;-81
2024/01/24 02:55:17;;;;;;;13.20;4.28;;;;;;;;;;5093550;28;20051;-81
2024/01/24 02:57:45;;;;;;;11.45;4.28;;;;;;;;;;5093285;28;20020;-81
2024/01/24 03:00:12;;;;;;;12.40;4.35;;;;;;;;;;5093852;28;20016;-82
2024/01/24 03:02:37;;;;;;;18.02;4.95;;;;;;;;;;5093649;28;20048;-81
2024/01/24 03:05:05;;;;;;;11.93;4.20;;;;;;;;;;5093572;28;20089;-80
2024/01/24 03:07:31;;;;;;;10.40;3.40;;;;;;;;;;5093492;28;20047;-81
2024/01/24 03:09:56;;;;;;;11.75;3.60;;;;;;;;;;5093349;28;20051;-81
2024/01/24 03:12:21;;;;;;;9.30;2.80;;;;;;;;;;5093169;28;20488;-81
2024/01/24 03:14:46;;;;;;;15.07;3.95;;;;;;;;;;5093480;28;20024;-81
2024/01/24 03:17:12;;;;;;;10.70;3.20;;;;;;;;;;5093555;28;20047;-81
2024/01/24 03:19:37;;;;;;;15.13;3.83;;;;;;;;;;5093360;28;20065;-81
2024/01/24 03:22:02;;;;;;;11.82;3.25;;;;;;;;;;5092131;28;20020;-80
2024/01/24 03:24:29;;;;;;;17.42;3.45;;;;;;;;;;5093796;28;20055;-81
2024/01/24 03:26:55;;;;;;;8.73;3.10;;;;;;;;;;5096847;28;20048;-81
2024/01/24 03:29:20;;;;;;;9.15;2.95;;;;;;;;;;5100449;28;20042;-82
2024/01/24 03:31:45;;;;;;;9.48;2.83;;;;;;;;;;5103486;28;20023;-81
2024/01/24 03:34:11;;;;;;;12.38;3.38;;;;;;;;;;5104714;28;20021;-82
2024/01/24 03:36:36;;;;;;;13.60;3.45;;;;;;;;;;5103902;28;20054;-82
2024/01/24 03:39:02;;;;;;;12.07;4.25;;;;;;;;;;5099356;28;20020;-79
2024/01/24 03:41:29;;;;;;;11.70;3.95;;;;;;;;;;5097330;28;20034;-81
2024/01/24 03:43:54;;;;;;;13.05;3.65;;;;;;;;;;5078716;28;20110;-82
2024/01/24 03:46:20;;;;;;;9.18;3.40;;;;;;;;;;5100581;28;20020;-81
2024/01/24 03:48:45;;;;;;;10.68;3.25;;;;;;;;;;5117140;28;20027;-81
2024/01/24 03:51:11;;;;;;;14.65;3.38;;;;;;;;;;5107555;28;20024;-81
2024/01/24 03:53:37;;;;;;;11.65;3.55;;;;;;;;;;5105144;28;20032;-81
2024/01/24 03:56:02;;;;;;;7.53;2.97;;;;;;;;;;5101244;28;20031;-82
2024/01/24 03:58:27;;;;;;;12.35;3.15;;;;;;;;;;5083391;28;20027;-81
2024/01/24 04:00:55;;;;;;;11.07;2.75;;;;;;;;;;5101155;28;20020;-81
2024/01/24 04:03:20;;;;;;;14.23;2.75;;;;;;;;;;5097388;28;20016;-83
2024/01/24 04:05:46;;;;;;;12.27;3.35;;;;;;;;;;5097778;28;20105;-81
2024/01/24 04:08:11;;;;;;;12.48;2.90;;;;;;;;;;5096775;28;20020;-80
2024/01/24 04:10:37;;;;;;;16.27;3.47;;;;;;;;;;5096623;28;20466;-80
2024/01/24 04:13:02;;;;;;;8.60;2.85;;;;;;;;;;5096577;28;20561;-80
2024/01/24 04:15:28;;;;;;;11.18;3.10;;;;;;;;;;5096554;28;20027;-80
2024/01/24 04:17:53;;;;;;;9.77;3.08;;;;;;;;;;5096612;28;20020;-82
2024/01/24 04:20:18;;;;;;;8.75;3.00;;;;;;;;;;5096431;28;20024;-82
2024/01/24 04:22:44;;;;;;;6.80;2.20;;;;;;;;;;5078258;28;20039;-81
2024/01/24 04:25:09;;;;;;;4.47;2.25;;;;;;;;;;5078178;28;20465;-80
2024/01/24 04:27:36;;;;;;;3.38;1.60;;;;;;;;;;5074574;28;20052;-80
2024/01/24 04:30:02;;;;;;;8.77;2.17;;;;;;;;;;5075891;28;20027;-81
2024/01/24 04:32:27;;;;;;;7.97;2.00;;;;;;;;;;5075958;28;20024;-82
2024/01/24 04:34:53;;;;;;;5.95;2.50;;;;;;;;;;5076039;28;20017;-80
2024/01/24 04:37:18;;;;;;;5.07;2.28;;;;;;;;;;5075584;28;20020;-81
2024/01/24 04:39:44;;;;;;;4.75;1.88;;;;;;;;;;5074274;28;20131;-80
2024/01/24 04:42:09;;;;;;;7.07;1.88;;;;;;;;;;5075586;28;20044;-80
2024/01/24 04:44:34;;;;;;;6.65;1.95;;;;;;;;;;5074448;28;20024;-79
2024/01/24 04:47:01;;;;;;;4.43;1.63;;;;;;;;;;5075675;28;20048;-81
2024/01/24 04:49:26;;;;;;;3.95;2.13;;;;;;;;;;5090546;28;20055;-81
2024/01/24 04:51:51;;;;;;;3.40;1.67;;;;;;;;;;5073690;28;20051;-82
2024/01/24 04:54:17;;;;;;;7.13;2.20;;;;;;;;;;5075395;28;20012;-81
2024/01/24 04:56:46;;;;;;;10.00;2.20;;;;;;;;;;5091024;28;20370;-81
2024/01/24 04:59:15;;;;;;;8.25;2.60;;;;;;;;;;5074205;28;20013;-81
2024/01/24 05:01:40;;;;;;;4.75;1.60;;;;;;;;;;5074284;28;20385;-82
2024/01/24 05:04:05;;;;;;;6.50;1.50;;;;;;;;;;5075736;28;20466;-83
2024/01/24 05:06:31;;;;;;;5.70;1.80;;;;;;;;;;5077010;28;20021;-81
2024/01/24 05:08:56;;;;;;;4.57;1.52;;;;;;;;;;5076370;28;20024;-81
2024/01/24 05:11:21;;;;;;;4.47;2.00;;;;;;;;;;5075365;28;20078;-80
2024/01/24 05:13:47;;;;;;;8.05;2.03;;;;;;;;;;5075249;28;20021;-79
2024/01/24 05:16:13;;;;;;;4.63;2.00;;;;;;;;;;5075408;28;20074;-82
2024/01/24 05:18:38;;;;;;;4.35;1.60;;;;;;;;;;5075309;28;20021;-82
2024/01/24 05:21:03;;;;;;;4.03;2.20;;;;;;;;;;5079525;28;20024;-81
2024/01/24 05:23:28;;;;;;;5.53;2.10;;;;;;;;;;5103297;28;20013;-80
2024/01/24 05:25:54;;;;;;;7.38;1.95;;;;;;;;;;5086039;28;20115;-82
2024/01/24 05:28:19;;;;;;;6.47;1.80;;;;;;;;;;5104298;28;20068;-80
2024/01/24 05:30:44;;;;;;;8.32;1.80;;;;;;;;;;5095480;28;20031;-82
2024/01/24 05:33:12;;;;;;;8.15;1.98;;;;;;;;;;5077246;28;20058;-82
2024/01/24 05:35:38;;;;;;;9.23;1.80;;;;;;;;;;5095283;28;20050;-80
2024/01/24 05:38:04;;;;;;;4.05;1.40;;;;;;;;;;5094714;28;20047;-81
2024/01/24 05:40:29;;;;;;;3.80;1.80;;;;;;;;;;5076336;28;20015;-80
2024/01/24 05:42:54;;;;;;;6.57;1.52;;;;;;;;;;5076772;28;20031;-80
2024/01/24 05:45:20;;;;;;;2.42;1.50;;;;;;;;;;5094804;28;20033;-81
2024/01/24 05:47:45;;;;;;;10.70;2.00;;;;;;;;;;5094727;28;20027;-81
2024/01/24 05:50:12;;;;;;;6.05;2.72;;;;;;;;;;5094641;28;20024;-81
2024/01/24 05:52:38;;;;;;;6.80;2.05;;;;;;;;;;5094402;28;20095;-80
2024/01/24 05:55:04;;;;;;;7.25;2.55;;;;;;;;;;5094628;28;20480;-81
2024/01/24 05:57:29;;;;;;;8.30;2.70;;;;;;;;;;5094672;28;20016;-81
2024/01/24 05:59:54;;;;;;;6.28;3.08;;;;;;;;;;5094461;28;20024;-81
2024/01/24 06:02:20;;;;;;;6.15;2.65;;;;;;;;;;5094434;28;20419;-81
2024/01/24 06:04:45;;;;;;;6.63;2.60;;;;;;;;;;5095660;28;20027;-80
2024/01/24 06:07:13;;;;;;;5.40;2.17;;;;;;;;;;5095530;28;20020;-78
2024/01/24 06:09:39;;;;;;;4.80;2.10;;;;;;;;;;5095430;28;20038;-80
2024/01/24 06:12:04;;;;;;;7.30;2.47;;;;;;;;;;5078614;28;20120;-79
2024/01/24 06:14:29;;;;;;;6.57;2.55;;;;;;;;;;5097808;28;20023;-79
2024/01/24 06:16:55;;;;;;;5.85;2.42;;;;;;;;;;5095802;28;20039;-80
2024/01/24 06:19:20;;;;;;;5.93;2.00;;;;;;;;;;5077446;28;20023;-82
2024/01/24 06:21:45;;;;;;;3.65;2.10;;;;;;;;;;5094269;28;20028;-82
2024/01/24 06:24:10;;;;;;;3.63;2.15;;;;;;;;;;5094001;28;20062;-81
2024/01/24 06:26:37;;;;;;;6.55;2.80;;;;;;;;;;5073649;28;20041;-83
2024/01/24 06:29:03;;;;;;;3.95;2.20;;;;;;;;;;5074961;28;20098;-80
2024/01/24 06:31:28;;;;;;;5.28;2.15;;;;;;;;;;5073739;28;20032;-80
2024/01/24 06:33:54;;;;;;;4.05;2.10;;;;;;;;;;5074589;28;20020;-81
2024/01/24 06:36:20;;;;;;;8.23;1.77;;;;;;;;;;5073164;28;20017;-81
2024/01/24 06:38:46;;;;;;;3.47;1.52;;;;;;;;;;5074830;28;20043;-80
2024/01/24 06:41:12;;;;;;;6.70;2.00;;;;;;;;;;5073575;28;20025;-81
2024/01/24 06:43:40;;;;;;;3.22;1.50;;;;;;;;;;5074580;28;20025;-81
2024/01/24 06:46:05;;;;;;;2.92;1.33;;;;;;;;;;5074707;28;20024;-80
2024/01/24 06:48:30;;;;;;;3.08;1.88;;;;;;;;;;5074601;28;20521;-81
2024/01/24 06:50:56;;;;;;;1.88;1.20;;;;;;;;;;5074096;28;20477;-80
2024/01/24 06:53:21;;;;;;;2.13;1.20;;;;;;;;;;5074027;28;20563;-81
2024/01/24 06:55:47;;;;;;;1.17;1.08;;;;;;;;;;5073954;28;20096;-81
2024/01/24 06:58:12;;;;;;;1.27;0.98;;;;;;;;;;5073394;28;20534;-82
2024/01/24 07:00:37;;;;;;;2.17;1.20;;;;;;;;;;5074210;28;20019;-81
2024/01/24 07:03:03;;;;;;;2.65;1.35;;;;;;;;;;5074488;28;20024;-81
2024/01/24 07:05:28;;;;;;;2.95;1.17;;;;;;;;;;5072271;28;20020;-80
2024/01/24 07:07:54;;;;;;;5.03;1.40;;;;;;;;;;5073651;28;20024;-80
2024/01/24 07:10:20;;;;;;;1.27;1.10;;;;;;;;;;5072873;28;20028;-82
2024/01/24 07:12:45;;;;;;;2.83;1.05;;;;;;;;;;5073669;28;20032;-81
2024/01/24 07:15:11;;;;;;;2.83;0.95;;;;;;;;;;5077892;28;20100;-81
2024/01/24 07:17:36;;;;;;;1.95;0.95;;;;;;;;;;5078936;28;20016;-80
2024/01/24 07:20:01;;;;;;;2.17;1.20;;;;;;;;;;5079708;28;20063;-82
2024/01/24 07:22:27;;;;;;;1.42;0.80;;;;;;;;;;5078531;28;20454;-81
2024/01/24 07:24:52;;;;;;;1.00;0.80;;;;;;;;;;5093211;28;20043;-81
2024/01/24 07:27:18;;;;;;;1.42;0.90;;;;;;;;;;5075585;28;20044;-83
2024/01/24 07:29:43;;;;;;;10.00;6.03;;;;;;;;;;5077367;28;20108;-82
2024/01/24 07:32:08;;;;;;;4.07;1.05;;;;;;;;;;5076166;28;20408;-83
2024/01/24 07:34:35;;;;;;;2.22;0.88;;;;;;;;;;5077529;28;20104;-80
2024/01/24 07:37:01;;;;;;;2.40;0.95;;;;;;;;;;5077676;28;20175;-82
2024/01/24 07:39:28;;;;;;;2.03;1.05;;;;;;;;;;5079331;28;20468;-81
2024/01/24 07:41:54;;;;;;;2.63;1.30;;;;;;;;;;5077235;28;20043;-81
2024/01/24 07:44:19;;;;;;;3.03;1.35;;;;;;;;;;5077936;28;20028;-81
2024/01/24 07:46:45;;;;;;;1.48;1.27;;;;;;;;;;5078239;28;20406;-81
2024/01/24 07:49:10;;;;;;;2.63;1.50;;;;;;;;;;5077796;28;20521;-81
2024/01/24 07:51:36;;;;;;;2.78;1.45;;;;;;;;;;5076621;28;20053;-80
2024/01/24 07:54:01;;;;;;;3.67;1.70;;;;;;;;;;5077888;28;20026;-82
2024/01/24 07:56:26;;;;;;;3.95;1.55;;;;;;;;;;5077623;28;20373;-81
2024/01/24 07:58:52;;;;;;;1.73;1.30;;;;;;;;;;5078080;28;20095;-82
2024/01/24 08:01:17;;;;;;;1.98;1.38;;;;;;;;;;5077719;28;20032;-82
2024/01/24 08:03:42;;;;;;;1.98;1.30;;;;;;;;;;5076421;28;20039;-81
2024/01/24 08:06:08;;;;;;;2.28;1.60;;;;;;;;;;5077564;28;20024;-79
2024/01/24 08:08:33;;;;;;;2.47;1.35;;;;;;;;;;5075924;28;20029;-81
2024/01/24 08:10:59;;;;;;;2.17;1.40;;;;;;;;;;5077685;28;20020;-81
2024/01/24 08:13:24;;;;;;;2.15;1.65;;;;;;;;;;5077261;28;20028;-82
2024/01/24 08:15:49;;;;;;;3.58;1.80;;;;;;;;;;5077186;28;20031;-80
2024/01/24 08:18:15;;;;;;;2.92;1.45;;;;;;;;;;5077850;28;20419;-81
2024/01/24 08:20:40;;;;;;;1.77;1.48;;;;;;;;;;5077058;28;20369;-83
2024/01/24 08:23:05;;;;;;;3.45;1.83;;;;;;;;;;5077308;28;20470;-82
2024/01/24 08:25:31;;;;;;;2.10;1.38;;;;;;;;;;5077008;28;20105;-82
2024/01/24 08:27:57;;;;;;;2.83;1.60;;;;;;;;;;5092378;28;20100;-80
2024/01/24 08:30:22;;;;;;;2.88;1.50;;;;;;;;;;5097455;28;20043;-82
2024/01/24 08:32:48;;;;;;;5.07;1.73;;;;;;;;;;5097907;28;20461;-81
2024/01/24 08:35:13;;;;;;;4.47;1.70;;;;;;;;;;5097912;28;20016;-81
2024/01/24 08:37:38;;;;;;;4.15;1.52;;;;;;;;;;5097961;28;20074;-83
2024/01/24 08:40:05;;;;;;;3.78;1.30;;;;;;;;;;5097491;28;20488;-82
2024/01/24 08:42:30;;;;;;;1.83;1.30;;;;;;;;;;5097718;28;20044;-81
2024/01/24 08:44:55;;;;;;;2.55;1.55;;;;;;;;;;5097382;28;20419;-82
2024/01/24 08:47:21;;;;;;;1.33;1.10;;;;;;;;;;5097358;28;20024;-81
2024/01/24 08:49:46;;;;;;;2.58;1.10;;;;;;;;;;5079107;28;20023;-81
2024/01/24 08:52:11;;;;;;;1.10;1.00;;;;;;;;;;5095791;28;20035;-80
2024/01/24 08:54:37;;;;;;;1.95;1.30;;;;;;;;;;5096926;28;20068;-83
2024/01/24 08:57:02;;;;;;;1.52;1.10;;;;;;;;;;5078619;28;20008;-83
2024/01/24 08:59:28;;;;;;;0.70;0.70;;;;;;;;;;5097121;28;20035;-83
2024/01/24 09:01:55;;;;;;;2.85;1.10;;;;;;;;;;5097062;28;20058;-81
2024/01/24 09:04:21;;;;;;;1.95;0.95;;;;;;;;;;5096275;28;20012;-80
2024/01/24 09:06:46;;;;;;;4.20;1.45;;;;;;;;;;5096804;28;20099;-83
2024/01/24 09:09:13;;;;;;;1.48;1.10;;;;;;;;;;5096620;28;20055;-82
2024/01/24 09:11:39;;;;;;;1.17;0.85;;;;;;;;;;5096244;28;20028;-79
2024/01/24 09:14:04;;;;;;;1.10;0.95;;;;;;;;;;5079036;28;20350;-81
2024/01/24 09:16:30;;;;;;;4.68;1.10;;;;;;;;;;5096712;28;20031;-81
2024/01/24 09:18:55;;;;;;;1.30;1.05;;;;;;;;;;5095933;28;20031;-82
2024/01/24 09:21:20;;;;;;;3.00;1.10;;;;;;;;;;5096567;28;20024;-82
2024/01/24 09:23:49;;;;;;;1.00;0.77;;;;;;;;;;5078488;28;20039;-81
2024/01/24 09:26:14;;;;;;;1.60;0.82;;;;;;;;;;5096631;28;20009;-82
2024/01/24 09:28:40;;;;;;;2.08;1.15;;;;;;;;;;5096798;28;20446;-80
2024/01/24 09:31:05;;;;;;;2.30;1.00;;;;;;;;;;5095850;28;20028;-82
2024/01/24 09:33:31;;;;;;;1.90;1.00;;;;;;;;;;5095634;28;20397;-81
2024/01/24 09:35:56;;;;;;;1.58;1.10;;;;;;;;;;5077233;28;20024;-81
2024/01/24 09:38:21;;;;;;;2.75;0.90;;;;;;;;;;5096207;28;20453;-80
2024/01/24 09:40:46;;;;;;;2.28;0.82;;;;;;;;;;5078249;28;20038;-80
2024/01/24 09:43:12;;;;;;;1.10;1.00;;;;;;;;;;5077923;28;20129;-81
2024/01/24 09:45:40;;;;;;;1.30;0.63;;;;;;;;;;5095922;28;20062;-82
2024/01/24 09:48:09;;;;;;;8.80;1.02;;;;;;;;;;5095832;28;20028;-81
2024/01/24 09:50:35;;;;;;;2.80;0.80;;;;;;;;;;5097304;28;20024;-80
2024/01/24 09:53:02;;;;;;;2.55;0.68;;;;;;;;;;5098148;28;20052;-82
2024/01/24 09:55:28;;;;;;;2.92;0.93;;;;;;;;;;5099239;28;20026;-80
2024/01/24 09:57:53;;;;;;;5.65;1.13;;;;;;;;;;5099530;28;20020;-79
2024/01/24 10:00:19;;;;;;;8.15;1.10;;;;;;;;;;5099351;28;20411;-81
2024/01/24 10:02:45;;;;;;;1.92;0.70;;;;;;;;;;5082508;28;20024;-82
2024/01/24 10:05:12;;;;;;;0.85;0.50;;;;;;;;;;5099958;28;20024;-81
2024/01/24 10:07:38;;;;;;;2.20;0.60;;;;;;;;;;5098448;28;20348;-82
2024/01/24 10:10:07;;;;;;;0.80;0.68;;;;;;;;;;5096011;28;20103;-81
2024/01/24 10:12:33;;;;;;;2.03;1.00;;;;;;;;;;5095285;28;20024;-80
2024/01/24 10:14:58;;;;;;;1.33;0.80;;;;;;;;;;5077107;28;20042;-82
2024/01/24 10:17:23;;;;;;;0.70;0.60;;;;;;;;;;5095260;28;20020;-81
2024/01/24 10:19:48;;;;;;;3.10;0.90;;;;;;;;;;5077292;28;20071;-82
2024/01/24 10:22:14;;;;;;;1.02;0.77;;;;;;;;;;5095970;28;20530;-80
2024/01/24 10:24:40;;;;;;;2.28;1.35;;;;;;;;;;5095398;28;20039;-80
2024/01/24 10:27:05;;;;;;;2.97;1.08;;;;;;;;;;5095461;28;20048;-83
2024/01/24 10:29:30;;;;;;;1.95;1.23;;;;;;;;;;5077005;28;20020;-82
2024/01/24 10:31:59;;;;;;;6.53;1.55;;;;;;;;;;5076203;28;20457;-82
2024/01/24 10:34:27;;;;;;;1.50;0.98;;;;;;;;;;5095049;28;20093;-81
2024/01/24 10:36:53;;;;;;;5.97;1.30;;;;;;;;;;5095050;28;20077;-81
2024/01/24 10:39:20;;;;;;;3.40;1.15;;;;;;;;;;5094579;28;20024;-81
2024/01/24 10:41:48;;;;;;;5.25;1.40;;;;;;;;;;5094466;28;20019;-82
2024/01/24 10:44:16;;;;;;;5.47;1.38;;;;;;;;;;5076196;28;20077;-83
2024/01/24 10:46:42;;;;;;;6.10;1.40;;;;;;;;;;5094509;28;20051;-80
2024/01/24 10:49:09;;;;;;;2.25;1.40;;;;;;;;;;5094604;28;20480;-81
2024/01/24 10:51:35;;;;;;;5.75;1.63;;;;;;;;;;5094590;28;20103;-80
2024/01/24 10:54:02;;;;;;;4.53;1.23;;;;;;;;;;5094763;28;20070;-82
2024/01/24 10:56:28;;;;;;;2.42;1.33;;;;;;;;;;5094448;28;20069;-82
2024/01/24 10:58:55;;;;;;;4.57;1.75;;;;;;;;;;5095178;28;20020;-80
2024/01/24 11:01:20;;;;;;;3.55;1.42;;;;;;;;;;5094418;28;20024;-82
2024/01/24 11:03:47;;;;;;;3.20;1.50;;;;;;;;;;5094754;28;20024;-82
2024/01/24 11:06:14;;;;;;;3.45;1.50;;;;;;;;;;5094666;28;20421;-79
2024/01/24 11:08:48;;;;;;;2.92;1.40;;;;;;;;;;5076324;28;20035;-81
2024/01/24 11:11:15;;;;;;;2.15;1.33;;;;;;;;;;5094057;28;20059;-81
2024/01/24 11:13:41;;;;;;;2.58;1.40;;;;;;;;;;5094282;28;20099;-82
2024/01/24 11:16:25;;;;;;;2.65;1.30;;;;;;;;;;5094875;28;20485;-82
2024/01/24 11:18:50;;;;;;;8.27;1.60;;;;;;;;;;5094518;28;20048;-81
2024/01/24 11:21:19;;;;;;;8.23;1.98;;;;;;;;;;5094554;28;20020;-81
2024/01/24 11:23:47;;;;;;;8.30;1.90;;;;;;;;;;5094086;28;20364;-81
2024/01/24 11:26:18;;;;;;;6.20;1.88;;;;;;;;;;5093509;28;20016;-80
2024/01/24 11:28:44;;;;;;;3.22;1.15;;;;;;;;;;5094026;28;20020;-79
2024/01/24 11:31:11;;;;;;;3.97;1.52;;;;;;;;;;5093988;28;20012;-79
2024/01/24 11:33:36;;;;;;;2.00;1.05;;;;;;;;;;5093842;28;20070;-79
2024/01/24 11:36:03;;;;;;;5.13;1.15;;;;;;;;;;5093845;28;20016;-81
2024/01/24 11:38:29;;;;;;;6.88;1.33;;;;;;;;;;5093670;28;20017;-80
2024/01/24 11:40:59;;;;;;;1.73;1.20;;;;;;;;;;5094058;28;20028;-81
2024/01/24 11:43:25;;;;;;;6.20;1.20;;;;;;;;;;5093882;28;20016;-83
2024/01/24 11:45:52;;;;;;;3.72;1.10;;;;;;;;;;5094768;28;20068;-82
2024/01/24 11:48:18;;;;;;;4.72;2.03;;;;;;;;;;5077688;28;20016;-82
2024/01/24 11:50:46;;;;;;;8.70;1.63;;;;;;;;;;5096251;28;20373;-83
2024/01/24 11:53:11;;;;;;;6.50;2.03;;;;;;;;;;5094609;28;20028;-83
2024/01/24 11:55:36;;;;;;;4.80;1.77;;;;;;;;;;5094419;28;20027;-80
2024/01/24 11:58:03;;;;;;;4.55;1.98;;;;;;;;;;5094429;28;20055;-83
2024/01/24 12:00:28;;;;;;;6.35;2.42;;;;;;;;;;5097223;28;20055;-82
2024/01/24 12:02:53;;;;;;;7.20;2.10;;;;;;;;;;5098226;28;20032;-83
2024/01/24 12:05:20;;;;;;;7.85;2.40;;;;;;;;;;5079901;28;20056;-82
2024/01/24 12:07:45;;;;;;;8.23;1.85;;;;;;;;;;5102406;28;20016;-83
2024/01/24 12:10:11;;;;;;;7.25;2.50;;;;;;;;;;5087992;28;20035;-83
2024/01/24 12:12:36;;;;;;;8.00;2.35;;;;;;;;;;5107960;28;20035;-83
2024/01/24 12:15:02;;;;;;;7.55;2.40;;;;;;;;;;5089141;28;20079;-83
2024/01/24 12:17:27;;;;;;;9.90;2.28;;;;;;;;;;5105959;28;20092;-83
2024/01/24 12:19:52;;;;;;;10.95;2.40;;;;;;;;;;5087662;28;20016;-83
2024/01/24 12:22:18;;;;;;;12.10;2.65;;;;;;;;;;5105881;28;20024;-82
2024/01/24 12:24:43;;;;;;;10.23;2.60;;;;;;;;;;5105192;28;20096;-82
2024/01/24 12:27:08;;;;;;;10.45;2.83;;;;;;;;;;5083222;28;20090;-82
2024/01/24 12:29:34;;;;;;;10.20;2.78;;;;;;;;;;5098340;28;20025;-82
2024/01/24 12:32:00;;;;;;;15.18;2.58;;;;;;;;;;5081575;28;20017;-84
2024/01/24 12:34:28;;;;;;;9.63;4.07;;;;;;;;;;5082803;28;20024;-83
2024/01/24 12:36:55;;;;;;;12.90;3.38;;;;;;;;;;5080804;28;20047;-84
2024/01/24 12:39:33;;;;;;;9.30;2.45;;;;;;;;;;5084315;28;20027;-84
2024/01/24 12:41:59;;;;;;;11.65;2.78;;;;;;;;;;5080982;28;20029;-82
2024/01/24 12:44:25;;;;;;;15.18;2.60;;;;;;;;;;5082855;28;20024;-84
2024/01/24 12:46:55;;;;;;;10.77;2.83;;;;;;;;;;5082162;28;20077;-84
2024/01/24 12:49:20;;;;;;;14.30;3.53;;;;;;;;;;5081475;28;20020;-83
2024/01/24 12:51:46;;;;;;;12.90;2.78;;;;;;;;;;5081166;28;20032;-82
2024/01/24 12:54:12;;;;;;;16.23;2.78;;;;;;;;;;5082434;28;20024;-83
2024/01/24 12:56:37;;;;;;;11.88;2.47;;;;;;;;;;5080990;28;20052;-81
2024/01/24 12:59:02;;;;;;;11.50;2.58;;;;;;;;;;5078258;28;20042;-83
2024/01/24 13:01:28;;;;;;;8.07;3.03;;;;;;;;;;5078314;28;20055;-83
2024/01/24 13:03:53;;;;;;;15.25;4.05;;;;;;;;;;5076993;28;20429;-83
2024/01/24 13:06:18;;;;;;;17.67;3.22;;;;;;;;;;5078831;28;20047;-82
2024/01/24 13:08:44;;;;;;;11.60;3.30;;;;;;;;;;5077043;28;20462;-84
2024/01/24 13:11:09;;;;;;;12.60;3.15;;;;;;;;;;5078968;28;20497;-83
2024/01/24 13:13:35;;;;;;;17.35;3.17;;;;;;;;;;5080012;28;20051;-83
2024/01/24 13:16:00;;;;;;;10.80;3.28;;;;;;;;;;5080321;28;20374;-82
2024/01/24 13:18:25;;;;;;;14.18;3.38;;;;;;;;;;5078990;28;20050;-83
2024/01/24 13:20:51;;;;;;;10.15;2.83;;;;;;;;;;5092959;28;20028;-84
2024/01/24 13:23:16;;;;;;;11.05;3.70;;;;;;;;;;5093154;28;20012;-83
2024/01/24 13:25:41;;;;;;;10.50;2.33;;;;;;;;;;5076458;28;20473;-84
2024/01/24 13:28:08;;;;;;;10.48;2.75;;;;;;;;;;5093856;28;20123;-83
2024/01/24 13:30:34;;;;;;;13.15;3.17;;;;;;;;;;5097169;28;20035;-82
2024/01/24 13:32:59;;;;;;;14.90;3.30;;;;;;;;;;5097033;28;20471;-83
2024/01/24 13:35:25;;;;;;;14.52;2.90;;;;;;;;;;5098168;28;20484;-82
2024/01/24 13:37:52;;;;;;;11.25;2.85;;;;;;;;;;5101742;28;20054;-81
2024/01/24 13:40:17;;;;;;;8.85;2.38;;;;;;;;;;5105981;28;20016;-81
2024/01/24 13:42:43;;;;;;;10.35;2.42;;;;;;;;;;5104230;28;20024;-83
2024/01/24 13:45:08;;;;;;;5.55;2.05;;;;;;;;;;5102431;28;20445;-82
2024/01/24 13:47:34;;;;;;;16.40;2.47;;;;;;;;;;5100334;28;20043;-81
2024/01/24 13:49:59;;;;;;;6.95;1.92;;;;;;;;;;5100442;28;20574;-82
2024/01/24 13:52:25;;;;;;;9.95;3.03;;;;;;;;;;5101891;28;20024;-84
2024/01/24 13:54:50;;;;;;;9.90;1.95;;;;;;;;;;5099888;28;20022;-82
2024/01/24 13:57:15;;;;;;;11.90;2.97;;;;;;;;;;5100058;28;20028;-82
2024/01/24 13:59:41;;;;;;;10.82;2.58;;;;;;;;;;5097647;28;20108;-80
2024/01/24 14:02:06;;;;;;;9.48;2.55;;;;;;;;;;5098457;28;20472;-83
2024/01/24 14:04:31;;;;;;;10.10;2.33;;;;;;;;;;5102404;28;20032;-82
2024/01/24 14:06:56;;;;;;;10.90;3.58;;;;;;;;;;5105384;28;20024;-81
2024/01/24 14:09:22;;;;;;;8.88;2.17;;;;;;;;;;5096406;28;20054;-81
2024/01/24 14:11:47;;;;;;;6.20;2.10;;;;;;;;;;5077440;28;20050;-83
2024/01/24 14:14:12;;;;;;;12.82;2.70;;;;;;;;;;5095659;28;20421;-82
2024/01/24 14:16:38;;;;;;;8.35;2.53;;;;;;;;;;5096137;28;20020;-82
2024/01/24 14:19:03;;;;;;;11.57;2.20;;;;;;;;;;5096201;28;20019;-81
2024/01/24 14:21:29;;;;;;;13.40;2.65;;;;;;;;;;5095434;28;20078;-82
2024/01/24 14:23:56;;;;;;;10.10;2.20;;;;;;;;;;5094452;28;20461;-82
2024/01/24 14:26:22;;;;;;;7.28;2.63;;;;;;;;;;5094030;28;20100;-81
2024/01/24 14:28:47;;;;;;;14.50;2.47;;;;;;;;;;5094970;28;20032;-83